createdAt,value
2023-02-04T00:00:57.873Z,4.31
2023-02-04T00:03:26.779Z,4.52
2023-02-04T00:05:55.032Z,4.54
2023-02-04T00:08:24.762Z,4.63
2023-02-04T00:10:54.532Z,4.59
2023-02-04T00:13:25.789Z,4.52
2023-02-04T00:15:54.240Z,4.63
2023-02-04T00:18:24.339Z,4.73
2023-02-04T00:20:52.541Z,4.52
2023-02-04T00:23:22.216Z,4.57
2023-02-04T00:25:51.080Z,4.73
2023-02-04T00:28:19.436Z,4.60
2023-02-04T00:30:52.828Z,4.56
2023-02-04T00:33:21.361Z,4.54
2023-02-04T00:35:52.396Z,4.63
2023-02-04T00:38:21.300Z,4.67
2023-02-04T00:40:50.871Z,4.54
2023-02-04T00:43:20.523Z,4.59
2023-02-04T00:45:52.789Z,4.46
2023-02-04T00:48:23.052Z,4.45
2023-02-04T00:50:51.276Z,4.46
2023-02-04T00:53:21.611Z,4.41
2023-02-04T00:55:50.913Z,4.62
2023-02-04T00:58:19.940Z,4.81
2023-02-04T01:00:49.036Z,4.63
2023-02-04T01:03:19.205Z,4.73
2023-02-04T01:05:47.889Z,4.73
2023-02-04T01:08:16.370Z,4.73
2023-02-04T01:10:45.250Z,4.76
2023-02-04T01:13:13.849Z,4.69
2023-02-04T01:15:42.746Z,4.81
2023-02-04T01:18:15.065Z,4.94
2023-02-04T01:20:44.932Z,4.98
2023-02-04T01:23:13.087Z,5.04
2023-02-04T01:25:41.636Z,4.95
2023-02-04T01:28:10.439Z,5.00
2023-02-04T01:30:39.934Z,5.00
2023-02-04T01:33:09.284Z,5.01
2023-02-04T01:35:37.746Z,5.01
2023-02-04T01:38:09.414Z,4.97
2023-02-04T01:40:37.687Z,5.02
2023-02-04T01:43:06.729Z,4.95
2023-02-04T01:45:37.086Z,4.85
2023-02-04T01:48:08.826Z,4.97
2023-02-04T01:50:37.389Z,4.97
2023-02-04T01:53:08.068Z,4.94
2023-02-04T01:55:51.697Z,5.00
2023-02-04T01:58:20.582Z,4.88
2023-02-04T02:00:50.542Z,4.90
2023-02-04T02:03:22.085Z,4.94
2023-02-04T02:05:52.825Z,5.00
2023-02-04T02:08:25.101Z,4.92
2023-02-04T02:10:54.947Z,4.88
2023-02-04T02:13:24.456Z,5.04
2023-02-04T02:15:58.243Z,5.01
2023-02-04T02:18:26.595Z,5.04
2023-02-04T02:20:55.685Z,5.08
2023-02-04T02:23:31.304Z,5.02
2023-02-04T02:26:01.733Z,5.04
2023-02-04T02:28:35.165Z,5.07
2023-02-04T02:31:04.857Z,4.98
2023-02-04T02:33:33.408Z,4.94
2023-02-04T02:36:02.704Z,4.95
2023-02-04T02:38:31.444Z,5.01
2023-02-04T02:41:02.054Z,5.07
2023-02-04T02:43:31.242Z,5.00
2023-02-04T02:46:02.357Z,5.02
2023-02-04T02:48:31.168Z,5.14
2023-02-04T02:50:59.693Z,5.02
2023-02-04T02:53:32.480Z,4.97
2023-02-04T02:56:04.652Z,4.98
2023-02-04T02:58:35.317Z,4.97
2023-02-04T03:01:10.042Z,5.01
2023-02-04T03:03:41.888Z,5.02
2023-02-04T03:06:13.291Z,5.05
2023-02-04T03:08:48.259Z,5.01
2023-02-04T03:11:18.423Z,5.11
2023-02-04T03:13:46.921Z,5.00
2023-02-04T03:16:16.094Z,5.15
2023-02-04T03:18:45.609Z,5.07
2023-02-04T03:21:17.740Z,5.11
2023-02-04T03:23:47.108Z,5.04
2023-02-04T03:26:17.268Z,5.08
2023-02-04T03:28:45.699Z,5.12
2023-02-04T03:31:14.457Z,5.08
2023-02-04T03:33:42.984Z,4.97
2023-02-04T03:36:11.798Z,4.98
2023-02-04T03:38:41.543Z,4.88
2023-02-04T03:41:11.185Z,4.94
2023-02-04T03:43:41.061Z,4.92
2023-02-04T03:46:09.421Z,4.94
2023-02-04T03:48:38.864Z,4.91
2023-02-04T03:51:08.601Z,4.87
2023-02-04T03:53:37.039Z,4.88
2023-02-04T03:56:06.235Z,4.88
2023-02-04T03:58:35.240Z,4.87
2023-02-04T04:01:07.345Z,4.76
2023-02-04T04:03:35.830Z,4.77
2023-02-04T04:06:06.431Z,4.81
2023-02-04T04:08:35.112Z,4.90
2023-02-04T04:11:03.795Z,4.79
2023-02-04T04:13:34.355Z,4.84
2023-02-04T04:16:05.240Z,4.88
2023-02-04T04:18:34.434Z,4.87
2023-02-04T04:21:03.177Z,4.84
2023-02-04T04:23:31.605Z,4.95
2023-02-04T04:26:00.104Z,4.87
2023-02-04T04:28:28.421Z,4.98
2023-02-04T04:30:56.923Z,4.85
2023-02-04T04:33:26.701Z,4.80
2023-02-04T04:35:54.837Z,4.90
2023-02-04T04:38:25.504Z,4.87
2023-02-04T04:40:55.078Z,4.94
2023-02-04T04:43:23.553Z,4.92
2023-02-04T04:45:51.940Z,5.02
2023-02-04T04:48:21.618Z,5.01
2023-02-04T04:50:51.734Z,5.02
2023-02-04T04:53:20.177Z,5.01
2023-02-04T04:55:48.988Z,5.12
2023-02-04T04:58:17.682Z,5.05
2023-02-04T05:00:46.175Z,5.00
2023-02-04T05:03:14.814Z,4.98
2023-02-04T05:05:42.996Z,5.15
2023-02-04T05:08:17.208Z,5.18
2023-02-04T05:10:46.201Z,5.18
2023-02-04T05:13:15.395Z,5.27
2023-02-04T05:15:44.387Z,5.40
2023-02-04T05:18:13.148Z,5.43
2023-02-04T05:20:41.370Z,5.35
2023-02-04T05:23:17.300Z,5.40
2023-02-04T05:25:47.040Z,5.42
2023-02-04T05:28:15.810Z,5.35
2023-02-04T05:30:44.527Z,5.22
2023-02-04T05:33:14.529Z,5.27
2023-02-04T05:35:43.285Z,5.27
2023-02-04T05:38:11.667Z,5.14
2023-02-04T05:40:41.301Z,5.12
2023-02-04T05:43:09.735Z,5.05
2023-02-04T05:45:38.174Z,4.90
2023-02-04T05:48:08.079Z,4.94
2023-02-04T05:50:36.489Z,5.04
2023-02-04T05:53:06.659Z,5.00
2023-02-04T05:55:35.456Z,4.97
2023-02-04T05:58:05.448Z,4.95
2023-02-04T06:00:34.538Z,5.04
2023-02-04T06:03:02.782Z,4.90
2023-02-04T06:05:31.384Z,4.90
2023-02-04T06:08:00.101Z,4.87
2023-02-04T06:10:29.887Z,4.79
2023-02-04T06:12:58.468Z,4.77
2023-02-04T06:15:28.404Z,4.71
2023-02-04T06:17:56.644Z,4.62
2023-02-04T06:20:25.459Z,4.62
2023-02-04T06:22:54.616Z,4.62
2023-02-04T06:25:23.835Z,4.53
2023-02-04T06:27:52.932Z,4.43
2023-02-04T06:30:22.537Z,4.45
2023-02-04T06:32:52.928Z,4.38
2023-02-04T06:35:21.493Z,4.35
2023-02-04T06:37:50.755Z,4.21
2023-02-04T06:40:19.339Z,4.15
2023-02-04T06:42:47.549Z,4.22
2023-02-04T06:45:16.499Z,4.06
2023-02-04T06:47:44.881Z,4.08
2023-02-04T06:50:19.027Z,4.01
2023-02-04T06:52:47.866Z,3.98
2023-02-04T06:55:17.045Z,3.94
2023-02-04T06:57:45.653Z,3.94
2023-02-04T07:00:15.541Z,3.91
2023-02-04T07:02:46.263Z,3.90
2023-02-04T07:05:16.130Z,3.94
2023-02-04T07:07:46.380Z,3.94
2023-02-04T07:10:16.951Z,3.94
2023-02-04T07:12:46.004Z,3.91
2023-02-04T07:15:15.614Z,3.88
2023-02-04T07:17:44.920Z,3.80
2023-02-04T07:20:15.383Z,3.77
2023-02-04T07:22:44.557Z,3.73
2023-02-04T07:25:15.314Z,3.73
2023-02-04T07:27:45.773Z,3.60
2023-02-04T07:30:14.987Z,3.57
2023-02-04T07:32:43.455Z,3.54
2023-02-04T07:35:14.005Z,3.42
2023-02-04T07:37:43.898Z,3.36
2023-02-04T07:40:14.823Z,3.39
2023-02-04T07:42:44.492Z,3.29
2023-02-04T07:45:13.457Z,3.18
2023-02-04T07:47:42.255Z,3.16
2023-02-04T07:50:12.691Z,3.15
2023-02-04T07:52:41.237Z,3.13
2023-02-04T07:55:12.624Z,3.12
2023-02-04T07:57:40.847Z,3.16
2023-02-04T08:00:10.934Z,3.29
2023-02-04T08:02:40.139Z,3.37
2023-02-04T08:05:09.456Z,3.52
2023-02-04T08:07:38.042Z,3.57
2023-02-04T08:10:12.807Z,3.67
2023-02-04T08:12:45.729Z,3.52
2023-02-04T08:15:14.511Z,3.42
2023-02-04T08:17:44.410Z,3.35
2023-02-04T08:20:14.296Z,3.35
2023-02-04T08:22:42.785Z,3.29
2023-02-04T08:25:13.639Z,3.33
2023-02-04T08:27:42.676Z,3.30
2023-02-04T08:30:13.521Z,3.30
2023-02-04T08:32:41.941Z,3.35
2023-02-04T08:35:11.118Z,3.32
2023-02-04T08:37:39.999Z,3.27
2023-02-04T08:40:10.529Z,3.25
2023-02-04T08:42:40.424Z,3.16
2023-02-04T08:45:09.780Z,3.16
2023-02-04T08:47:39.503Z,3.30
2023-02-04T08:50:09.087Z,3.56
2023-02-04T08:52:38.513Z,3.59
2023-02-04T08:55:07.309Z,3.64
2023-02-04T08:57:36.428Z,3.49
2023-02-04T09:00:09.408Z,3.57
2023-02-04T09:02:38.036Z,3.62
2023-02-04T09:05:07.087Z,3.62
2023-02-04T09:07:35.839Z,3.66
2023-02-04T09:10:05.825Z,3.75
2023-02-04T09:12:34.915Z,3.94
2023-02-04T09:15:05.336Z,3.73
2023-02-04T09:17:36.440Z,3.73
2023-02-04T09:20:05.634Z,3.75
2023-02-04T09:22:38.016Z,3.83
2023-02-04T09:25:07.015Z,3.99
2023-02-04T09:27:36.880Z,4.14
2023-02-04T09:30:08.104Z,4.32
2023-02-04T09:32:38.290Z,4.53
2023-02-04T09:35:10.302Z,4.88
2023-02-04T09:37:39.029Z,4.83
2023-02-04T09:40:08.145Z,4.94
2023-02-04T09:42:37.805Z,4.83
2023-02-04T09:45:07.249Z,4.64
2023-02-04T09:47:39.406Z,4.35
2023-02-04T09:50:15.889Z,4.31
2023-02-04T09:52:45.206Z,4.19
2023-02-04T09:55:15.763Z,4.19
2023-02-04T09:57:44.684Z,4.18
2023-02-04T10:00:29.948Z,4.14
2023-02-04T10:03:02.964Z,4.09
2023-02-04T10:05:33.906Z,3.98
2023-02-04T10:08:03.179Z,4.02
2023-02-04T10:10:34.742Z,4.01
2023-02-04T10:13:05.697Z,4.02
2023-02-04T10:15:35.365Z,4.01
2023-02-04T10:18:08.866Z,3.98
2023-02-04T10:20:38.232Z,3.97
2023-02-04T10:23:12.742Z,4.04
2023-02-04T10:25:43.078Z,4.04
2023-02-04T10:28:11.829Z,4.08
2023-02-04T10:30:41.665Z,4.15
2023-02-04T10:33:30.153Z,4.12
2023-02-04T10:35:58.937Z,4.26
2023-02-04T10:38:28.232Z,4.25
2023-02-04T10:41:03.726Z,4.32
2023-02-04T10:43:35.363Z,4.39
2023-02-04T10:46:05.444Z,4.54
2023-02-04T10:48:45.561Z,4.66
2023-02-04T10:51:16.444Z,4.67
2023-02-04T10:54:02.641Z,4.71
2023-02-04T10:56:33.757Z,4.80
2023-02-04T10:59:02.265Z,4.95
2023-02-04T11:01:31.663Z,5.00
2023-02-04T11:04:02.685Z,5.12
2023-02-04T11:06:31.214Z,5.11
2023-02-04T11:09:00.777Z,5.01
2023-02-04T11:11:29.281Z,4.85
2023-02-04T11:14:03.325Z,4.67
2023-02-04T11:16:36.535Z,4.50
2023-02-04T11:19:08.298Z,4.49
2023-02-04T11:21:46.339Z,4.45
2023-02-04T11:24:28.476Z,4.50
2023-02-04T11:27:08.979Z,4.54
2023-02-04T11:29:39.481Z,4.53
2023-02-04T11:32:28.354Z,4.43
2023-02-04T11:35:10.000Z,4.45
2023-02-04T11:37:40.928Z,4.52
2023-02-04T11:40:25.431Z,4.57
2023-02-04T11:43:01.354Z,4.48
2023-02-04T11:45:32.948Z,4.41
2023-02-04T11:48:04.026Z,4.62
2023-02-04T11:50:38.764Z,4.52
2023-02-04T11:53:07.300Z,4.38
2023-02-04T11:55:48.411Z,4.52
2023-02-04T11:58:19.286Z,4.43
2023-02-04T12:00:49.084Z,4.26
2023-02-04T12:03:26.844Z,4.32
2023-02-04T12:05:57.330Z,4.31
2023-02-04T12:08:33.685Z,4.35
2023-02-04T12:11:09.617Z,4.53
2023-02-04T12:13:50.626Z,4.49
2023-02-04T12:16:20.182Z,4.81
2023-02-04T12:18:48.477Z,4.79
2023-02-04T12:21:18.855Z,4.41
2023-02-04T12:23:47.712Z,4.32
2023-02-04T12:26:16.641Z,4.41
2023-02-04T12:28:45.416Z,4.45
2023-02-04T12:31:15.294Z,4.54
2023-02-04T12:33:44.041Z,4.46
2023-02-04T12:36:13.887Z,4.09
2023-02-04T12:38:44.149Z,4.15
2023-02-04T12:41:13.126Z,4.01
2023-02-04T12:43:41.283Z,4.18
2023-02-04T12:46:09.756Z,4.39
2023-02-04T12:48:41.076Z,4.49
2023-02-04T12:51:09.693Z,4.33
2023-02-04T12:53:38.449Z,4.63
2023-02-04T12:56:08.334Z,4.26
2023-02-04T12:58:36.804Z,4.49
2023-02-04T13:01:06.110Z,4.14
2023-02-04T13:03:35.261Z,4.22
2023-02-04T13:06:04.138Z,4.09
2023-02-04T13:08:32.901Z,3.94
2023-02-04T13:11:01.591Z,3.81
2023-02-04T13:13:34.363Z,3.71
2023-02-04T13:16:02.970Z,3.77
2023-02-04T13:18:32.757Z,3.95
2023-02-04T13:21:03.464Z,3.91
2023-02-04T13:23:32.233Z,3.91
2023-02-04T13:26:00.528Z,3.98
2023-02-04T13:28:29.327Z,3.63
2023-02-04T13:31:04.099Z,3.37
2023-02-04T13:33:33.561Z,3.36
2023-02-04T13:36:01.775Z,3.67
2023-02-04T13:38:30.207Z,3.57
2023-02-04T13:40:58.795Z,3.87
2023-02-04T13:43:28.514Z,3.54
2023-02-04T13:45:59.490Z,3.19
2023-02-04T13:48:30.950Z,3.06
2023-02-04T13:51:01.146Z,3.06
2023-02-04T13:53:33.332Z,3.01
2023-02-04T13:56:04.749Z,2.97
2023-02-04T13:58:43.839Z,2.92
2023-02-04T14:01:20.276Z,2.98
2023-02-04T14:03:55.707Z,2.95
2023-02-04T14:06:25.252Z,3.01
2023-02-04T14:08:54.591Z,3.13
2023-02-04T14:11:28.594Z,3.11
2023-02-04T14:14:04.107Z,3.11
2023-02-04T14:16:37.552Z,3.19
2023-02-04T14:19:09.608Z,3.11
2023-02-04T14:21:43.290Z,2.99
2023-02-04T14:24:18.975Z,2.94
2023-02-04T14:26:51.203Z,2.87
2023-02-04T14:29:28.835Z,2.83
2023-02-04T14:32:01.346Z,2.73
2023-02-04T14:34:35.330Z,2.71
2023-02-04T14:37:07.199Z,2.70
2023-02-04T14:39:41.593Z,2.64
2023-02-04T14:42:10.871Z,2.56
2023-02-04T14:44:42.109Z,2.48
2023-02-04T14:47:15.608Z,2.46
2023-02-04T14:49:46.231Z,2.39
2023-02-04T14:52:18.240Z,2.34
2023-02-04T14:54:49.241Z,2.27
2023-02-04T14:57:18.135Z,2.20
2023-02-04T14:59:55.638Z,2.16
2023-02-04T15:02:31.933Z,2.16
2023-02-04T15:05:06.264Z,2.15
2023-02-04T15:07:40.993Z,2.08
2023-02-04T15:10:15.262Z,2.08
2023-02-04T15:12:45.666Z,1.95
2023-02-04T15:15:19.580Z,1.94
2023-02-04T15:17:57.199Z,1.86
2023-02-04T15:20:33.042Z,1.75
2023-02-04T15:23:06.959Z,1.67
2023-02-04T15:25:38.244Z,1.65
2023-02-04T15:28:11.908Z,1.62
2023-02-04T15:30:46.606Z,1.55
2023-02-04T15:33:19.637Z,1.48
2023-02-04T15:35:50.534Z,1.52
2023-02-04T15:38:25.100Z,1.36
2023-02-04T15:40:55.683Z,1.34
2023-02-04T15:43:27.282Z,1.37
2023-02-04T15:46:01.332Z,1.30
2023-02-04T15:48:32.854Z,1.20
2023-02-04T15:51:01.376Z,1.13
2023-02-04T15:53:34.884Z,1.12
2023-02-04T15:56:07.640Z,1.10
2023-02-04T15:58:40.083Z,1.13
2023-02-04T16:01:09.069Z,1.15
2023-02-04T16:03:46.132Z,1.16
2023-02-04T16:06:16.456Z,1.09
2023-02-04T16:08:48.729Z,1.09
2023-02-04T16:11:19.747Z,0.89
2023-02-04T16:13:49.981Z,0.89
2023-02-04T16:16:21.860Z,0.86
2023-02-04T16:18:56.841Z,0.89
2023-02-04T16:21:27.196Z,0.75
2023-02-04T16:23:57.856Z,0.82
2023-02-04T16:26:32.238Z,0.74
2023-02-04T16:29:03.669Z,0.75
2023-02-04T16:31:34.858Z,0.61
2023-02-04T16:34:07.604Z,0.66
2023-02-04T16:36:38.928Z,0.74
2023-02-04T16:39:13.003Z,0.69
2023-02-04T16:41:44.945Z,0.61
2023-02-04T16:44:15.115Z,0.66
2023-02-04T16:46:46.214Z,0.75
2023-02-04T16:49:21.549Z,0.75
2023-02-04T16:51:53.551Z,0.64
2023-02-04T16:54:23.520Z,0.71
2023-02-04T16:56:57.018Z,0.53
2023-02-04T16:59:28.807Z,0.51
2023-02-04T17:02:00.973Z,0.48
2023-02-04T17:04:36.801Z,0.58
2023-02-04T17:07:06.598Z,0.51
2023-02-04T17:09:40.226Z,0.48
2023-02-04T17:12:11.583Z,0.50
2023-02-04T17:14:41.167Z,0.47
2023-02-04T17:17:12.734Z,0.44
2023-02-04T17:19:43.437Z,0.40
2023-02-04T17:22:13.180Z,0.44
2023-02-04T17:24:43.746Z,0.34
2023-02-04T17:27:18.684Z,0.41
2023-02-04T17:29:52.445Z,0.24
2023-02-04T17:32:24.696Z,0.17
2023-02-04T17:34:59.361Z,0.17
2023-02-04T17:37:28.225Z,0.21
2023-02-04T17:39:59.087Z,0.16
2023-02-04T17:42:30.391Z,0.11
2023-02-04T17:45:02.056Z,0.21
2023-02-04T17:47:33.322Z,0.18
2023-02-04T17:50:07.504Z,0.18
2023-02-04T17:52:41.920Z,0.14
2023-02-04T17:55:18.505Z,0.21
2023-02-04T17:57:49.488Z,0.03
2023-02-04T18:00:23.492Z,0.16
2023-02-04T18:03:01.379Z,0.14
2023-02-04T18:05:32.217Z,0.06
2023-02-04T18:08:07.176Z,0.10
2023-02-04T18:10:40.480Z,0.11
2023-02-04T18:13:17.420Z,0.02
2023-02-04T18:15:48.366Z,0.07
2023-02-04T18:18:27.257Z,-0.15
2023-02-04T18:21:21.520Z,-0.10
2023-02-04T18:24:01.428Z,-0.11
2023-02-04T18:26:33.521Z,-0.11
2023-02-04T18:29:05.854Z,-0.03
2023-02-04T18:31:38.423Z,-0.13
2023-02-04T18:34:20.812Z,-0.11
2023-02-04T18:36:53.080Z,-0.29
2023-02-04T18:39:26.029Z,-0.34
2023-02-04T18:41:59.471Z,-0.34
2023-02-04T18:44:34.485Z,-0.41
2023-02-04T18:47:08.610Z,-0.28
2023-02-04T18:49:46.794Z,-0.32
2023-02-04T18:52:19.911Z,-0.49
2023-02-04T18:54:54.120Z,-0.46
2023-02-04T18:57:30.786Z,-0.38
2023-02-04T19:00:27.866Z,-0.39
2023-02-04T19:02:59.065Z,-0.42
2023-02-04T19:05:34.243Z,-0.42
2023-02-04T19:08:27.004Z,-0.55
2023-02-04T19:10:59.008Z,-0.53
2023-02-04T19:13:41.788Z,-0.56
2023-02-04T19:16:25.784Z,-0.59
2023-02-04T19:18:59.236Z,-0.63
2023-02-04T19:21:30.113Z,-0.59
2023-02-04T19:24:15.333Z,-0.66
2023-02-04T19:26:58.670Z,-0.62
2023-02-04T19:29:40.040Z,-0.46
2023-02-04T19:32:29.748Z,-0.69
2023-02-04T19:35:12.766Z,-0.73
2023-02-04T19:37:45.336Z,-0.74
2023-02-04T19:40:33.494Z,-0.80
2023-02-04T19:43:22.731Z,-0.87
2023-02-04T19:45:52.462Z,-0.97
2023-02-04T19:48:23.890Z,-1.10
2023-02-04T19:50:56.590Z,-1.11
2023-02-04T19:53:30.038Z,-1.04
2023-02-04T19:56:01.634Z,-0.94
2023-02-04T19:58:38.712Z,-0.93
2023-02-04T20:01:12.360Z,-0.93
2023-02-04T20:03:42.634Z,-1.07
2023-02-04T20:06:38.223Z,-1.03
2023-02-04T20:09:15.388Z,-1.13
2023-02-04T20:11:59.437Z,-0.97
2023-02-04T20:14:41.632Z,-1.20
2023-02-04T20:17:32.644Z,-1.25
2023-02-04T20:20:21.105Z,-1.17
2023-02-04T20:22:52.781Z,-1.27
2023-02-04T20:25:47.489Z,-1.42
2023-02-04T20:28:39.924Z,-1.65
2023-02-04T20:31:30.512Z,-1.76
2023-02-04T20:34:01.305Z,-1.44
2023-02-04T20:36:40.837Z,-1.47
2023-02-04T20:39:39.260Z,-1.42
2023-02-04T20:42:33.578Z,-1.30
2023-02-04T20:45:18.682Z,-1.22
2023-02-04T20:47:49.179Z,-1.40
2023-02-04T20:50:43.109Z,-1.49
2023-02-04T20:53:23.007Z,-1.48
2023-02-04T20:55:53.956Z,-1.37
2023-02-04T20:58:25.811Z,-1.32
2023-02-04T21:01:00.242Z,-1.48
2023-02-04T21:03:34.749Z,-1.47
2023-02-04T21:06:14.916Z,-1.55
2023-02-04T21:08:51.665Z,-1.58
2023-02-04T21:11:21.862Z,-1.38
2023-02-04T21:13:50.747Z,-1.59
2023-02-04T21:16:25.034Z,-1.49
2023-02-04T21:18:55.034Z,-1.35
2023-02-04T21:21:28.110Z,-1.41
2023-02-04T21:23:59.935Z,-1.41
2023-02-04T21:26:29.030Z,-1.49
2023-02-04T21:29:00.060Z,-1.51
2023-02-04T21:31:33.280Z,-1.52
2023-02-04T21:34:04.870Z,-1.38
2023-02-04T21:36:35.687Z,-1.37
2023-02-04T21:39:06.212Z,-1.55
2023-02-04T21:41:36.803Z,-1.48
2023-02-04T21:44:07.197Z,-1.40
2023-02-04T21:46:38.126Z,-1.25
2023-02-04T21:49:06.773Z,-1.37
2023-02-04T21:51:37.706Z,-1.41
2023-02-04T21:54:07.148Z,-1.34
2023-02-04T21:56:36.984Z,-1.40
2023-02-04T21:59:07.507Z,-1.51
2023-02-04T22:01:39.095Z,-1.54
2023-02-04T22:04:08.737Z,-1.48
2023-02-04T22:06:37.506Z,-1.51
2023-02-04T22:09:07.732Z,-1.38
2023-02-04T22:11:37.117Z,-1.49
2023-02-04T22:14:07.028Z,-1.32
2023-02-04T22:16:37.390Z,-1.35
2023-02-04T22:19:06.704Z,-1.47
2023-02-04T22:21:41.485Z,-1.48
2023-02-04T22:24:12.677Z,-1.42
2023-02-04T22:26:42.428Z,-1.34
2023-02-04T22:29:21.630Z,-1.34
2023-02-04T22:31:53.844Z,-1.42
2023-02-04T22:34:22.826Z,-1.25
2023-02-04T22:36:52.457Z,-1.41
2023-02-04T22:39:21.080Z,-1.42
2023-02-04T22:41:53.793Z,-1.34
2023-02-04T22:44:22.420Z,-1.41
2023-02-04T22:47:04.457Z,-1.45
2023-02-04T22:49:37.559Z,-1.40
2023-02-04T22:52:07.373Z,-1.41
2023-02-04T22:54:44.047Z,-1.45
2023-02-04T22:57:14.048Z,-1.41
2023-02-04T22:59:46.055Z,-1.54
2023-02-04T23:02:18.425Z,-1.37
2023-02-04T23:04:48.292Z,-1.42
2023-02-04T23:07:16.839Z,-1.30
2023-02-04T23:09:45.725Z,-1.38
2023-02-04T23:12:17.231Z,-1.30
2023-02-04T23:14:48.336Z,-1.34
2023-02-04T23:17:19.899Z,-1.44
2023-02-04T23:19:50.327Z,-1.28
2023-02-04T23:22:21.373Z,-1.42
2023-02-04T23:24:50.603Z,-1.31
2023-02-04T23:27:20.481Z,-1.34
2023-02-04T23:29:49.758Z,-1.42
2023-02-04T23:32:20.990Z,-1.35
2023-02-04T23:34:51.148Z,-1.47
2023-02-04T23:37:19.587Z,-1.37
2023-02-04T23:39:51.047Z,-1.35
2023-02-04T23:42:25.233Z,-1.34
2023-02-04T23:44:55.199Z,-1.30
2023-02-04T23:47:29.134Z,-1.24
2023-02-04T23:49:59.516Z,-1.37
2023-02-04T23:52:29.437Z,-1.20
2023-02-04T23:55:00.825Z,-1.32
2023-02-04T23:57:30.769Z,-1.34
